PWSweather.com
Personal Weather Stations
Station Observations
KWABLAIN13
Ptl Weather, Blaine, WA

Ptl WeatherBlaine, WA

Lat: 48.997393, Lon: -122.748614

Elevation: 57

Station Type: Davis Advantage Pro 2

http://www.ptlnet.net

High Low Average
Temperature 46.4°F8.0°C 35.5°F1.9°C 41.3°F5.2°C
Dew Point 44.8°F7.1°C 34.5°F1.4°C 40.1°F4.5°C
Winds 10.0 mph 16.1 kmh Calm Calm 2.0 mph ENE3.2 kmh ENE
Wind Gusts 11.0 mph17.7 kmh -- 4.0 mph6.4 kmh
Humidity 97% 90% 96%
Pressure 30.47 in1031.8 mb 30.35 in1027.8 mb -
Precipitation 0.00 in0.0 mm - -
Hour Temp Dew Point Humidity Winds Wind Gusts Pressure Precip Precip Rate Daily Precip Total
12:04 AM 38.8°F3.8°C 38.0°F3.3°C 97% 4.0 mph ENE6.4 kmh ENE 5.0 mph8.0 kmh 30.36 in1028.1 mb 0.05 in1.3 mm 0.75 in19.1 mm 0.05 in1.3 mm
12:09 AM 38.7°F3.7°C 37.9°F3.3°C 97% 3.0 mph NE4.8 kmh NE 5.0 mph8.0 kmh 30.36 in1028.1 mb 0.05 in1.3 mm 0.00 in0.0 mm 0.05 in1.3 mm
12:25 AM 38.8°F3.8°C 38.0°F3.3°C 97% 2.0 mph N3.2 kmh N 5.0 mph8.0 kmh 30.36 in1028.1 mb 0.04 in1.0 mm 0.00 in0.0 mm 0.05 in1.3 mm
12:30 AM 38.9°F3.8°C 38.1°F3.4°C 97% 3.0 mph NE4.8 kmh NE 5.0 mph8.0 kmh 30.36 in1028.1 mb 0.04 in1.0 mm 0.00 in0.0 mm 0.05 in1.3 mm
12:45 AM 39.2°F4.0°C 38.4°F3.6°C 97% 5.0 mph NNE8.0 kmh NNE 8.0 mph12.9 kmh 30.36 in1028.1 mb 0.04 in1.0 mm 0.00 in0.0 mm 0.05 in1.3 mm
12:50 AM 39.3°F4.1°C 38.5°F3.6°C 97% 3.0 mph NNE4.8 kmh NNE 8.0 mph12.9 kmh 30.37 in1028.4 mb 0.05 in1.3 mm 0.12 in3.0 mm 0.06 in1.5 mm
01:05 AM 39.3°F4.1°C 38.5°F3.6°C 97% 5.0 mph NNE8.0 kmh NNE 7.0 mph11.3 kmh 30.37 in1028.4 mb 0.04 in1.0 mm 0.00 in0.0 mm 0.06 in1.5 mm
01:09 AM 39.5°F4.2°C 38.7°F3.7°C 97% 4.0 mph NE6.4 kmh NE 7.0 mph11.3 kmh 30.37 in1028.4 mb 0.05 in1.3 mm 0.15 in3.8 mm 0.07 in1.8 mm
01:25 AM 39.4°F4.1°C 38.6°F3.7°C 97% 4.0 mph ENE6.4 kmh ENE 6.0 mph9.7 kmh 30.38 in1028.8 mb 0.06 in1.5 mm 0.04 in1.0 mm 0.08 in2.0 mm
01:30 AM 39.4°F4.1°C 38.6°F3.7°C 97% 2.0 mph NE3.2 kmh NE 7.0 mph11.3 kmh 30.38 in1028.8 mb 0.07 in1.8 mm 0.12 in3.0 mm 0.09 in2.3 mm
01:45 AM 39.5°F4.2°C 38.7°F3.7°C 97% 4.0 mph ENE6.4 kmh ENE 7.0 mph11.3 kmh 30.38 in1028.8 mb 0.08 in2.0 mm 0.04 in1.0 mm 0.10 in2.5 mm
01:50 AM 39.6°F4.2°C 38.8°F3.8°C 97% 5.0 mph NE8.0 kmh NE 7.0 mph11.3 kmh 30.38 in1028.8 mb 0.09 in2.3 mm 0.12 in3.0 mm 0.11 in2.8 mm
02:05 AM 40.0°F4.4°C 39.2°F4.0°C 97% 5.0 mph NNE8.0 kmh NNE 10.0 mph16.1 kmh 30.38 in1028.8 mb 0.07 in1.8 mm 0.00 in0.0 mm 0.11 in2.8 mm
02:10 AM 40.1°F4.5°C 39.3°F4.1°C 97% 9.0 mph NNE14.5 kmh NNE 11.0 mph17.7 kmh 30.38 in1028.8 mb 0.06 in1.5 mm 0.00 in0.0 mm 0.11 in2.8 mm
02:25 AM 40.6°F4.8°C 39.8°F4.3°C 97% 5.0 mph N8.0 kmh N 5.0 mph8.0 kmh 30.38 in1028.8 mb 0.06 in1.5 mm 0.00 in0.0 mm 0.11 in2.8 mm
02:29 AM 40.6°F4.8°C 39.8°F4.3°C 97% 4.0 mph NE6.4 kmh NE 8.0 mph12.9 kmh 30.38 in1028.8 mb 0.06 in1.5 mm 0.00 in0.0 mm 0.11 in2.8 mm
02:44 AM 40.6°F4.8°C 39.8°F4.3°C 97% 3.0 mph NE4.8 kmh NE 6.0 mph9.7 kmh 30.38 in1028.8 mb 0.04 in1.0 mm 0.00 in0.0 mm 0.11 in2.8 mm
02:50 AM 40.6°F4.8°C 39.8°F4.3°C 97% 5.0 mph NE8.0 kmh NE 7.0 mph11.3 kmh 30.38 in1028.8 mb 0.04 in1.0 mm 0.00 in0.0 mm 0.11 in2.8 mm
03:05 AM 40.6°F4.8°C 39.8°F4.3°C 97% 2.0 mph NE3.2 kmh NE 5.0 mph8.0 kmh 30.39 in1029.1 mb 0.02 in0.5 mm 0.00 in0.0 mm 0.11 in2.8 mm
03:10 AM 40.6°F4.8°C 39.8°F4.3°C 97% 2.0 mph NE3.2 kmh NE 5.0 mph8.0 kmh 30.39 in1029.1 mb 0.02 in0.5 mm 0.00 in0.0 mm 0.11 in2.8 mm
03:25 AM 40.7°F4.8°C 39.9°F4.4°C 97% 1.0 mph ENE1.6 kmh ENE 2.0 mph3.2 kmh 30.39 in1029.1 mb 0.01 in0.3 mm 0.00 in0.0 mm 0.11 in2.8 mm
03:29 AM 40.7°F4.8°C 39.9°F4.4°C 97% 3.0 mph SE4.8 kmh SE 5.0 mph8.0 kmh 30.39 in1029.1 mb 0.01 in0.3 mm 0.00 in0.0 mm 0.11 in2.8 mm
03:45 AM 40.7°F4.8°C 39.9°F4.4°C 97% Calm Calm 5.0 mph8.0 kmh 30.39 in1029.1 mb 0.00 in0.0 mm 0.00 in0.0 mm 0.11 in2.8 mm
03:50 AM 40.7°F4.8°C 39.9°F4.4°C 97% 7.0 mph NNE11.3 kmh NNE 7.0 mph11.3 kmh 30.39 in1029.1 mb 0.00 in0.0 mm 0.00 in0.0 mm 0.11 in2.8 mm
04:05 AM 40.6°F4.8°C 39.8°F4.3°C 97% 10.0 mph N16.1 kmh N 10.0 mph16.1 kmh 30.39 in1029.1 mb 0.00 in0.0 mm 0.00 in0.0 mm 0.11 in2.8 mm
04:09 AM 40.7°F4.8°C 39.9°F4.4°C 97% 3.0 mph NE4.8 kmh NE 10.0 mph16.1 kmh 30.39 in1029.1 mb 0.00 in0.0 mm 0.00 in0.0 mm 0.11 in2.8 mm
04:25 AM 40.7°F4.8°C 39.9°F4.4°C 97% 4.0 mph NNE6.4 kmh NNE 8.0 mph12.9 kmh 30.40 in1029.5 mb 0.00 in0.0 mm 0.00 in0.0 mm 0.11 in2.8 mm
04:30 AM 40.8°F4.9°C 40.0°F4.4°C 97% 5.0 mph N8.0 kmh N 8.0 mph12.9 kmh 30.40 in1029.5 mb 0.00 in0.0 mm 0.00 in0.0 mm 0.11 in2.8 mm
04:45 AM 40.7°F4.8°C 39.9°F4.4°C 97% 8.0 mph N12.9 kmh N 8.0 mph12.9 kmh 30.40 in1029.5 mb 0.00 in0.0 mm 0.00 in0.0 mm 0.11 in2.8 mm
04:50 AM 40.7°F4.8°C 39.9°F4.4°C 97% 4.0 mph NNE6.4 kmh NNE 7.0 mph11.3 kmh 30.40 in1029.5 mb 0.00 in0.0 mm 0.00 in0.0 mm 0.11 in2.8 mm
05:05 AM 40.7°F4.8°C 39.9°F4.4°C 97% 9.0 mph N14.5 kmh N 10.0 mph16.1 kmh 30.40 in1029.5 mb 0.00 in0.0 mm 0.00 in0.0 mm 0.11 in2.8 mm
05:10 AM 40.6°F4.8°C 39.8°F4.3°C 97% 1.0 mph NNE1.6 kmh NNE 10.0 mph16.1 kmh 30.41 in1029.8 mb 0.00 in0.0 mm 0.00 in0.0 mm 0.11 in2.8 mm
05:25 AM 40.7°F4.8°C 39.9°F4.4°C 97% 3.0 mph NE4.8 kmh NE 7.0 mph11.3 kmh 30.41 in1029.8 mb 0.00 in0.0 mm 0.00 in0.0 mm 0.11 in2.8 mm
05:29 AM 40.7°F4.8°C 39.9°F4.4°C 97% 3.0 mph NNE4.8 kmh NNE 7.0 mph11.3 kmh 30.41 in1029.8 mb 0.00 in0.0 mm 0.00 in0.0 mm 0.11 in2.8 mm
05:45 AM 40.7°F4.8°C 39.9°F4.4°C 97% 4.0 mph NNE6.4 kmh NNE 6.0 mph9.7 kmh 30.41 in1029.8 mb 0.00 in0.0 mm 0.00 in0.0 mm 0.11 in2.8 mm
05:50 AM 40.8°F4.9°C 40.0°F4.4°C 97% 1.0 mph ENE1.6 kmh ENE 7.0 mph11.3 kmh 30.41 in1029.8 mb 0.00 in0.0 mm 0.00 in0.0 mm 0.11 in2.8 mm
06:05 AM 40.9°F4.9°C 40.1°F4.5°C 97% 3.0 mph ENE4.8 kmh ENE 4.0 mph6.4 kmh 30.41 in1029.8 mb 0.00 in0.0 mm 0.00 in0.0 mm 0.11 in2.8 mm
06:09 AM 40.9°F4.9°C 40.1°F4.5°C 97% 3.0 mph NE4.8 kmh NE 4.0 mph6.4 kmh 30.41 in1029.8 mb 0.00 in0.0 mm 0.00 in0.0 mm 0.11 in2.8 mm
06:25 AM 41.0°F5.0°C 40.2°F4.6°C 97% 2.0 mph NE3.2 kmh NE 3.0 mph4.8 kmh 30.42 in1030.1 mb 0.01 in0.3 mm 0.04 in1.0 mm 0.12 in3.0 mm
06:30 AM 41.0°F5.0°C 40.2°F4.6°C 97% 2.0 mph E3.2 kmh E 4.0 mph6.4 kmh 30.42 in1030.1 mb 0.01 in0.3 mm 0.00 in0.0 mm 0.12 in3.0 mm
06:45 AM 41.1°F5.1°C 40.3°F4.6°C 97% 3.0 mph E4.8 kmh E 4.0 mph6.4 kmh 30.41 in1029.8 mb 0.01 in0.3 mm 0.00 in0.0 mm 0.12 in3.0 mm
06:50 AM 41.1°F5.1°C 40.3°F4.6°C 97% 3.0 mph NE4.8 kmh NE 4.0 mph6.4 kmh 30.41 in1029.8 mb 0.01 in0.3 mm 0.00 in0.0 mm 0.12 in3.0 mm
07:05 AM 41.1°F5.1°C 40.3°F4.6°C 97% 3.0 mph ENE4.8 kmh ENE 5.0 mph8.0 kmh 30.41 in1029.8 mb 0.01 in0.3 mm 0.00 in0.0 mm 0.12 in3.0 mm
07:10 AM 41.1°F5.1°C 40.3°F4.6°C 97% 2.0 mph NE3.2 kmh NE 5.0 mph8.0 kmh 30.42 in1030.1 mb 0.01 in0.3 mm 0.00 in0.0 mm 0.12 in3.0 mm
07:25 AM 41.2°F5.1°C 40.4°F4.7°C 97% 2.0 mph E3.2 kmh E 4.0 mph6.4 kmh 30.42 in1030.1 mb 0.01 in0.3 mm 0.00 in0.0 mm 0.12 in3.0 mm
07:30 AM 41.2°F5.1°C 40.4°F4.7°C 97% 2.0 mph E3.2 kmh E 5.0 mph8.0 kmh 30.42 in1030.1 mb 0.01 in0.3 mm 0.00 in0.0 mm 0.12 in3.0 mm
07:45 AM 41.2°F5.1°C 40.4°F4.7°C 97% 2.0 mph E3.2 kmh E 5.0 mph8.0 kmh 30.42 in1030.1 mb 0.00 in0.0 mm 0.00 in0.0 mm 0.12 in3.0 mm
07:50 AM 41.2°F5.1°C 40.4°F4.7°C 97% 2.0 mph ENE3.2 kmh ENE 5.0 mph8.0 kmh 30.42 in1030.1 mb 0.00 in0.0 mm 0.00 in0.0 mm 0.12 in3.0 mm
08:05 AM 41.2°F5.1°C 40.4°F4.7°C 97% 1.0 mph ENE1.6 kmh ENE 3.0 mph4.8 kmh 30.42 in1030.1 mb 0.00 in0.0 mm 0.00 in0.0 mm 0.12 in3.0 mm
08:09 AM 41.2°F5.1°C 40.4°F4.7°C 97% 1.0 mph ENE1.6 kmh ENE 4.0 mph6.4 kmh 30.42 in1030.1 mb 0.00 in0.0 mm 0.00 in0.0 mm 0.12 in3.0 mm
08:25 AM 41.2°F5.1°C 40.4°F4.7°C 97% Calm Calm 4.0 mph6.4 kmh 30.42 in1030.1 mb 0.00 in0.0 mm 0.00 in0.0 mm 0.12 in3.0 mm
08:29 AM 41.2°F5.1°C 40.4°F4.7°C 97% 1.0 mph ENE1.6 kmh ENE 4.0 mph6.4 kmh 30.43 in1030.5 mb 0.00 in0.0 mm 0.00 in0.0 mm 0.12 in3.0 mm
08:44 AM 41.2°F5.1°C 40.4°F4.7°C 97% 3.0 mph ENE4.8 kmh ENE 3.0 mph4.8 kmh 30.43 in1030.5 mb 0.00 in0.0 mm 0.00 in0.0 mm 0.12 in3.0 mm
08:50 AM 41.1°F5.1°C 40.3°F4.6°C 97% 2.0 mph ENE3.2 kmh ENE 4.0 mph6.4 kmh 30.43 in1030.5 mb 0.00 in0.0 mm 0.00 in0.0 mm 0.12 in3.0 mm
09:05 AM 41.0°F5.0°C 40.2°F4.6°C 97% 1.0 mph NE1.6 kmh NE 3.0 mph4.8 kmh 30.43 in1030.5 mb 0.00 in0.0 mm 0.00 in0.0 mm 0.12 in3.0 mm
09:10 AM 41.0°F5.0°C 40.2°F4.6°C 97% Calm Calm 4.0 mph6.4 kmh 30.43 in1030.5 mb 0.00 in0.0 mm 0.00 in0.0 mm 0.12 in3.0 mm
09:25 AM 41.0°F5.0°C 40.2°F4.6°C 97% Calm Calm 2.0 mph3.2 kmh 30.45 in1031.2 mb 0.00 in0.0 mm 0.00 in0.0 mm 0.12 in3.0 mm
09:29 AM 41.0°F5.0°C 40.2°F4.6°C 97% Calm Calm 3.0 mph4.8 kmh 30.44 in1030.8 mb 0.00 in0.0 mm 0.00 in0.0 mm 0.12 in3.0 mm
09:45 AM 40.9°F4.9°C 40.1°F4.5°C 97% 1.0 mph ENE1.6 kmh ENE 4.0 mph6.4 kmh 30.44 in1030.8 mb 0.00 in0.0 mm 0.00 in0.0 mm 0.12 in3.0 mm
09:50 AM 40.9°F4.9°C 40.1°F4.5°C 97% 2.0 mph NE3.2 kmh NE 2.0 mph3.2 kmh 30.44 in1030.8 mb 0.00 in0.0 mm 0.00 in0.0 mm 0.12 in3.0 mm
10:05 AM 40.9°F4.9°C 40.1°F4.5°C 97% 2.0 mph ENE3.2 kmh ENE 4.0 mph6.4 kmh 30.45 in1031.2 mb 0.00 in0.0 mm 0.00 in0.0 mm 0.12 in3.0 mm
10:10 AM 41.0°F5.0°C 40.2°F4.6°C 97% 2.0 mph ENE3.2 kmh ENE 4.0 mph6.4 kmh 30.45 in1031.2 mb 0.00 in0.0 mm 0.00 in0.0 mm 0.12 in3.0 mm
10:25 AM 41.0°F5.0°C 40.2°F4.6°C 97% 1.0 mph ENE1.6 kmh ENE 4.0 mph6.4 kmh 30.46 in1031.5 mb 0.00 in0.0 mm 0.00 in0.0 mm 0.12 in3.0 mm
10:29 AM 41.0°F5.0°C 40.2°F4.6°C 97% 2.0 mph ENE3.2 kmh ENE 4.0 mph6.4 kmh 30.46 in1031.5 mb 0.00 in0.0 mm 0.00 in0.0 mm 0.12 in3.0 mm
10:45 AM 41.1°F5.1°C 40.3°F4.6°C 97% 3.0 mph ENE4.8 kmh ENE 3.0 mph4.8 kmh 30.46 in1031.5 mb 0.00 in0.0 mm 0.00 in0.0 mm 0.12 in3.0 mm
10:49 AM 41.2°F5.1°C 40.4°F4.7°C 97% 1.0 mph ENE1.6 kmh ENE 4.0 mph6.4 kmh 30.46 in1031.5 mb 0.00 in0.0 mm 0.00 in0.0 mm 0.12 in3.0 mm
11:05 AM 41.4°F5.2°C 40.6°F4.8°C 97% 2.0 mph ENE3.2 kmh ENE 3.0 mph4.8 kmh 30.46 in1031.5 mb 0.00 in0.0 mm 0.00 in0.0 mm 0.12 in3.0 mm
11:10 AM 41.5°F5.3°C 40.7°F4.8°C 97% 2.0 mph ENE3.2 kmh ENE 3.0 mph4.8 kmh 30.46 in1031.5 mb 0.00 in0.0 mm 0.00 in0.0 mm 0.12 in3.0 mm
11:25 AM 41.6°F5.3°C 40.8°F4.9°C 97% Calm Calm 3.0 mph4.8 kmh 30.47 in1031.8 mb 0.00 in0.0 mm 0.00 in0.0 mm 0.12 in3.0 mm
11:30 AM 41.7°F5.4°C 40.9°F4.9°C 97% Calm Calm 3.0 mph4.8 kmh 30.47 in1031.8 mb 0.00 in0.0 mm 0.00 in0.0 mm 0.12 in3.0 mm
11:45 AM 41.9°F5.5°C 41.1°F5.1°C 97% 2.0 mph ENE3.2 kmh ENE 4.0 mph6.4 kmh 30.47 in1031.8 mb 0.00 in0.0 mm 0.00 in0.0 mm 0.12 in3.0 mm
11:49 AM 42.0°F5.6°C 41.2°F5.1°C 97% 2.0 mph ENE3.2 kmh ENE 4.0 mph6.4 kmh 30.46 in1031.5 mb 0.00 in0.0 mm 0.00 in0.0 mm 0.12 in3.0 mm
12:05 PM 42.3°F5.7°C 41.5°F5.3°C 97% 2.0 mph ENE3.2 kmh ENE 4.0 mph6.4 kmh 30.47 in1031.8 mb 0.00 in0.0 mm 0.00 in0.0 mm 0.12 in3.0 mm
12:10 PM 42.4°F5.8°C 41.6°F5.3°C 97% 1.0 mph E1.6 kmh E 4.0 mph6.4 kmh 30.47 in1031.8 mb 0.00 in0.0 mm 0.00 in0.0 mm 0.12 in3.0 mm
12:24 PM 42.6°F5.9°C 41.8°F5.4°C 97% 3.0 mph NE4.8 kmh NE 3.0 mph4.8 kmh 30.46 in1031.5 mb 0.00 in0.0 mm 0.00 in0.0 mm 0.12 in3.0 mm
12:29 PM 42.7°F5.9°C 41.9°F5.5°C 97% Calm Calm 6.0 mph9.7 kmh 30.46 in1031.5 mb 0.00 in0.0 mm 0.00 in0.0 mm 0.12 in3.0 mm
12:45 PM 42.9°F6.1°C 42.1°F5.6°C 97% 1.0 mph NNE1.6 kmh NNE 3.0 mph4.8 kmh 30.46 in1031.5 mb 0.00 in0.0 mm 0.00 in0.0 mm 0.12 in3.0 mm
12:49 PM 42.9°F6.1°C 42.1°F5.6°C 97% Calm Calm 4.0 mph6.4 kmh 30.46 in1031.5 mb 0.00 in0.0 mm 0.00 in0.0 mm 0.12 in3.0 mm
01:05 PM 43.0°F6.1°C 41.9°F5.5°C 96% 1.0 mph NE1.6 kmh NE 2.0 mph3.2 kmh 30.46 in1031.5 mb 0.00 in0.0 mm 0.00 in0.0 mm 0.12 in3.0 mm
01:10 PM 43.1°F6.2°C 42.0°F5.6°C 96% 1.0 mph NE1.6 kmh NE 3.0 mph4.8 kmh 30.46 in1031.5 mb 0.00 in0.0 mm 0.00 in0.0 mm 0.12 in3.0 mm
01:25 PM 43.2°F6.2°C 42.1°F5.6°C 96% 2.0 mph NE3.2 kmh NE 3.0 mph4.8 kmh 30.46 in1031.5 mb 0.00 in0.0 mm 0.00 in0.0 mm 0.12 in3.0 mm
01:30 PM 43.3°F6.3°C 42.2°F5.7°C 96% 2.0 mph ENE3.2 kmh ENE 3.0 mph4.8 kmh 30.45 in1031.2 mb 0.00 in0.0 mm 0.00 in0.0 mm 0.12 in3.0 mm
01:45 PM 43.5°F6.4°C 42.4°F5.8°C 96% Calm Calm 3.0 mph4.8 kmh 30.45 in1031.2 mb 0.00 in0.0 mm 0.00 in0.0 mm 0.12 in3.0 mm
01:50 PM 43.6°F6.4°C 42.5°F5.8°C 96% 2.0 mph E3.2 kmh E 5.0 mph8.0 kmh 30.45 in1031.2 mb 0.00 in0.0 mm 0.00 in0.0 mm 0.12 in3.0 mm
02:05 PM 43.9°F6.6°C 42.8°F6.0°C 96% 2.0 mph E3.2 kmh E 5.0 mph8.0 kmh 30.45 in1031.2 mb 0.00 in0.0 mm 0.00 in0.0 mm 0.12 in3.0 mm
02:10 PM 44.0°F6.7°C 42.9°F6.1°C 96% 1.0 mph ENE1.6 kmh ENE 5.0 mph8.0 kmh 30.45 in1031.2 mb 0.00 in0.0 mm 0.00 in0.0 mm 0.12 in3.0 mm
02:25 PM 44.2°F6.8°C 43.1°F6.2°C 96% 3.0 mph ENE4.8 kmh ENE 4.0 mph6.4 kmh 30.45 in1031.2 mb 0.00 in0.0 mm 0.00 in0.0 mm 0.12 in3.0 mm
02:30 PM 44.2°F6.8°C 43.1°F6.2°C 96% 1.0 mph ENE1.6 kmh ENE 1.0 mph1.6 kmh 30.44 in1030.8 mb 0.00 in0.0 mm 0.00 in0.0 mm 0.12 in3.0 mm
02:45 PM 44.2°F6.8°C 43.1°F6.2°C 96% Calm Calm 5.0 mph8.0 kmh 30.44 in1030.8 mb 0.00 in0.0 mm 0.00 in0.0 mm 0.12 in3.0 mm
02:49 PM 44.2°F6.8°C 43.1°F6.2°C 96% 1.0 mph NE1.6 kmh NE 5.0 mph8.0 kmh 30.44 in1030.8 mb 0.00 in0.0 mm 0.00 in0.0 mm 0.12 in3.0 mm
03:05 PM 44.2°F6.8°C 43.1°F6.2°C 96% Calm Calm 4.0 mph6.4 kmh 30.43 in1030.5 mb 0.00 in0.0 mm 0.00 in0.0 mm 0.12 in3.0 mm
03:10 PM 44.2°F6.8°C 43.1°F6.2°C 96% 2.0 mph NE3.2 kmh NE 2.0 mph3.2 kmh 30.43 in1030.5 mb 0.00 in0.0 mm 0.00 in0.0 mm 0.12 in3.0 mm
03:25 PM 45.7°F7.6°C 44.6°F7.0°C 96% 4.0 mph E6.4 kmh E 4.0 mph6.4 kmh 30.43 in1030.5 mb 0.00 in0.0 mm 0.00 in0.0 mm 0.12 in3.0 mm
03:29 PM 45.9°F7.7°C 44.8°F7.1°C 96% 2.0 mph E3.2 kmh E 4.0 mph6.4 kmh 30.43 in1030.5 mb 0.00 in0.0 mm 0.00 in0.0 mm 0.12 in3.0 mm
03:44 PM 46.0°F7.8°C 44.7°F7.1°C 95% 2.0 mph ENE3.2 kmh ENE 3.0 mph4.8 kmh 30.43 in1030.5 mb 0.00 in0.0 mm 0.00 in0.0 mm 0.12 in3.0 mm
03:50 PM 46.1°F7.8°C 44.8°F7.1°C 95% Calm Calm -- 30.43 in1030.5 mb 0.00 in0.0 mm 0.00 in0.0 mm 0.12 in3.0 mm
04:04 PM 46.3°F7.9°C 44.7°F7.1°C 94% 1.0 mph NE1.6 kmh NE 5.0 mph8.0 kmh 30.42 in1030.1 mb 0.00 in0.0 mm 0.00 in0.0 mm 0.12 in3.0 mm
04:10 PM 46.3°F7.9°C 44.7°F7.1°C 94% 2.0 mph ENE3.2 kmh ENE 2.0 mph3.2 kmh 30.42 in1030.1 mb 0.00 in0.0 mm 0.00 in0.0 mm 0.12 in3.0 mm
04:25 PM 46.4°F8.0°C 44.5°F6.9°C 93% Calm Calm 3.0 mph4.8 kmh 30.42 in1030.1 mb 0.00 in0.0 mm 0.00 in0.0 mm 0.12 in3.0 mm
04:30 PM 46.4°F8.0°C 44.5°F6.9°C 93% Calm Calm 4.0 mph6.4 kmh 30.42 in1030.1 mb 0.00 in0.0 mm 0.00 in0.0 mm 0.12 in3.0 mm
04:45 PM 46.3°F7.9°C 44.1°F6.7°C 92% 2.0 mph NE3.2 kmh NE 4.0 mph6.4 kmh 30.42 in1030.1 mb 0.00 in0.0 mm 0.00 in0.0 mm 0.12 in3.0 mm
04:49 PM 46.3°F7.9°C 44.1°F6.7°C 92% 3.0 mph NE4.8 kmh NE 4.0 mph6.4 kmh 30.42 in1030.1 mb 0.00 in0.0 mm 0.00 in0.0 mm 0.12 in3.0 mm
05:05 PM 46.3°F7.9°C 44.1°F6.7°C 92% Calm Calm 3.0 mph4.8 kmh 30.41 in1029.8 mb 0.00 in0.0 mm 0.00 in0.0 mm 0.12 in3.0 mm
05:10 PM 46.2°F7.9°C 44.0°F6.7°C 92% 2.0 mph ENE3.2 kmh ENE 4.0 mph6.4 kmh 30.41 in1029.8 mb 0.00 in0.0 mm 0.00 in0.0 mm 0.12 in3.0 mm
05:25 PM 45.8°F7.7°C 43.0°F6.1°C 90% 1.0 mph NE1.6 kmh NE 4.0 mph6.4 kmh 30.41 in1029.8 mb 0.00 in0.0 mm 0.00 in0.0 mm 0.12 in3.0 mm
05:29 PM 45.6°F7.6°C 42.8°F6.0°C 90% 1.0 mph NE1.6 kmh NE 4.0 mph6.4 kmh 30.41 in1029.8 mb 0.00 in0.0 mm 0.00 in0.0 mm 0.12 in3.0 mm
05:45 PM 45.4°F7.4°C 42.9°F6.1°C 91% Calm Calm 4.0 mph6.4 kmh 30.40 in1029.5 mb 0.00 in0.0 mm 0.00 in0.0 mm 0.12 in3.0 mm
05:49 PM 45.2°F7.3°C 42.7°F5.9°C 91% 1.0 mph NE1.6 kmh NE 4.0 mph6.4 kmh 30.40 in1029.5 mb 0.00 in0.0 mm 0.00 in0.0 mm 0.12 in3.0 mm
06:05 PM 44.6°F7.0°C 42.1°F5.6°C 91% Calm Calm 3.0 mph4.8 kmh 30.40 in1029.5 mb 0.00 in0.0 mm 0.00 in0.0 mm 0.12 in3.0 mm
06:10 PM 44.3°F6.8°C 41.8°F5.4°C 91% Calm Calm -- 30.39 in1029.1 mb 0.00 in0.0 mm 0.00 in0.0 mm 0.12 in3.0 mm
06:25 PM 44.0°F6.7°C 41.6°F5.3°C 91% 2.0 mph E3.2 kmh E 3.0 mph4.8 kmh 30.39 in1029.1 mb 0.00 in0.0 mm 0.00 in0.0 mm 0.12 in3.0 mm
06:30 PM 43.7°F6.5°C 41.5°F5.3°C 92% Calm Calm 3.0 mph4.8 kmh 30.39 in1029.1 mb 0.00 in0.0 mm 0.00 in0.0 mm 0.12 in3.0 mm
06:45 PM 43.1°F6.2°C 40.9°F4.9°C 92% 1.0 mph E1.6 kmh E 2.0 mph3.2 kmh 30.39 in1029.1 mb 0.00 in0.0 mm 0.00 in0.0 mm 0.12 in3.0 mm
06:50 PM 42.9°F6.1°C 40.7°F4.8°C 92% Calm Calm 2.0 mph3.2 kmh 30.39 in1029.1 mb 0.00 in0.0 mm 0.00 in0.0 mm 0.12 in3.0 mm
07:05 PM 42.7°F5.9°C 40.8°F4.9°C 93% Calm Calm 1.0 mph1.6 kmh 30.38 in1028.8 mb 0.00 in0.0 mm 0.00 in0.0 mm 0.12 in3.0 mm
07:10 PM 42.7°F5.9°C 40.8°F4.9°C 93% Calm Calm 1.0 mph1.6 kmh 30.38 in1028.8 mb 0.00 in0.0 mm 0.00 in0.0 mm 0.12 in3.0 mm
07:25 PM 42.0°F5.6°C 40.1°F4.5°C 93% Calm Calm 1.0 mph1.6 kmh 30.38 in1028.8 mb 0.00 in0.0 mm 0.00 in0.0 mm 0.12 in3.0 mm
07:30 PM 41.8°F5.4°C 39.9°F4.4°C 93% Calm Calm 1.0 mph1.6 kmh 30.38 in1028.8 mb 0.00 in0.0 mm 0.00 in0.0 mm 0.12 in3.0 mm
07:45 PM 41.5°F5.3°C 39.9°F4.4°C 94% Calm Calm -- 30.38 in1028.8 mb 0.00 in0.0 mm 0.00 in0.0 mm 0.12 in3.0 mm
07:50 PM 41.2°F5.1°C 39.6°F4.2°C 94% Calm Calm -- 30.38 in1028.8 mb 0.00 in0.0 mm 0.00 in0.0 mm 0.12 in3.0 mm
08:05 PM 40.6°F4.8°C 39.0°F3.9°C 94% Calm Calm -- 30.38 in1028.8 mb 0.00 in0.0 mm 0.00 in0.0 mm 0.12 in3.0 mm
08:10 PM 40.4°F4.7°C 38.8°F3.8°C 94% Calm Calm -- 30.38 in1028.8 mb 0.00 in0.0 mm 0.00 in0.0 mm 0.12 in3.0 mm
08:25 PM 40.0°F4.4°C 38.4°F3.6°C 94% Calm Calm -- 30.38 in1028.8 mb 0.00 in0.0 mm 0.00 in0.0 mm 0.12 in3.0 mm
08:30 PM 39.8°F4.3°C 38.2°F3.4°C 94% Calm Calm -- 30.38 in1028.8 mb 0.00 in0.0 mm 0.00 in0.0 mm 0.12 in3.0 mm
08:44 PM 39.4°F4.1°C 37.8°F3.2°C 94% Calm Calm -- 30.38 in1028.8 mb 0.00 in0.0 mm 0.00 in0.0 mm 0.12 in3.0 mm
08:50 PM 39.3°F4.1°C 38.0°F3.3°C 95% Calm Calm -- 30.38 in1028.8 mb 0.00 in0.0 mm 0.00 in0.0 mm 0.12 in3.0 mm
09:05 PM 38.9°F3.8°C 37.6°F3.1°C 95% Calm Calm -- 30.38 in1028.8 mb 0.00 in0.0 mm 0.00 in0.0 mm 0.12 in3.0 mm
09:10 PM 38.9°F3.8°C 37.6°F3.1°C 95% Calm Calm -- 30.38 in1028.8 mb 0.00 in0.0 mm 0.00 in0.0 mm 0.12 in3.0 mm
09:25 PM 38.6°F3.7°C 37.3°F2.9°C 95% Calm Calm 1.0 mph1.6 kmh 30.38 in1028.8 mb 0.00 in0.0 mm 0.00 in0.0 mm 0.12 in3.0 mm
09:30 PM 38.6°F3.7°C 37.3°F2.9°C 95% 2.0 mph ENE3.2 kmh ENE 3.0 mph4.8 kmh 30.38 in1028.8 mb 0.00 in0.0 mm 0.00 in0.0 mm 0.12 in3.0 mm
09:45 PM 38.4°F3.6°C 37.1°F2.8°C 95% Calm Calm -- 30.38 in1028.8 mb 0.00 in0.0 mm 0.00 in0.0 mm 0.12 in3.0 mm
09:50 PM 38.2°F3.4°C 36.9°F2.7°C 95% Calm Calm -- 30.37 in1028.4 mb 0.00 in0.0 mm 0.00 in0.0 mm 0.12 in3.0 mm
10:04 PM 37.9°F3.3°C 36.6°F2.6°C 95% 1.0 mph ENE1.6 kmh ENE 2.0 mph3.2 kmh 30.37 in1028.4 mb 0.00 in0.0 mm 0.00 in0.0 mm 0.12 in3.0 mm
10:09 PM 37.9°F3.3°C 36.9°F2.7°C 96% 1.0 mph ENE1.6 kmh ENE 3.0 mph4.8 kmh 30.37 in1028.4 mb 0.00 in0.0 mm 0.00 in0.0 mm 0.12 in3.0 mm
10:24 PM 37.7°F3.2°C 36.7°F2.6°C 96% Calm Calm -- 30.37 in1028.4 mb 0.00 in0.0 mm 0.00 in0.0 mm 0.12 in3.0 mm
10:29 PM 37.6°F3.1°C 36.6°F2.6°C 96% Calm Calm -- 30.37 in1028.4 mb 0.00 in0.0 mm 0.00 in0.0 mm 0.12 in3.0 mm
10:44 PM 37.2°F2.9°C 36.2°F2.3°C 96% Calm Calm -- 30.37 in1028.4 mb 0.00 in0.0 mm 0.00 in0.0 mm 0.12 in3.0 mm
10:50 PM 37.1°F2.8°C 36.1°F2.3°C 96% Calm Calm -- 30.37 in1028.4 mb 0.00 in0.0 mm 0.00 in0.0 mm 0.12 in3.0 mm
11:05 PM 37.0°F2.8°C 36.0°F2.2°C 96% Calm Calm -- 30.36 in1028.1 mb 0.00 in0.0 mm 0.00 in0.0 mm 0.12 in3.0 mm
11:09 PM 36.9°F2.7°C 35.9°F2.2°C 96% Calm Calm -- 30.36 in1028.1 mb 0.00 in0.0 mm 0.00 in0.0 mm 0.12 in3.0 mm
11:24 PM 36.4°F2.4°C 35.4°F1.9°C 96% Calm Calm -- 30.36 in1028.1 mb 0.00 in0.0 mm 0.00 in0.0 mm 0.12 in3.0 mm
11:30 PM 36.2°F2.3°C 35.2°F1.8°C 96% Calm Calm -- 30.36 in1028.1 mb 0.00 in0.0 mm 0.00 in0.0 mm 0.12 in3.0 mm
11:45 PM 36.3°F2.4°C 35.3°F1.8°C 96% Calm Calm 2.0 mph3.2 kmh 30.37 in1028.4 mb 0.00 in0.0 mm 0.00 in0.0 mm 0.12 in3.0 mm
11:50 PM 36.2°F2.3°C 35.2°F1.8°C 96% Calm Calm -- 30.36 in1028.1 mb 0.00 in0.0 mm 0.00 in0.0 mm 0.12 in3.0 mm